Terminal Aerodrome Forecast
Issued by NWS

Home | Current Version | Previous Version | Text Only | Print | Product List | Glossary Off
Versions: 1 2 3 4 5 6 7 8 9 10 11 12 13 14 15 16 17 18 19 20 21 22

000
FTUS43 KICT 171152 AAA
TAFSLN
TAF AMD
KSLN 171152Z 1712/1812 09007KT P6SM SCT015 OVC080
     FM171700 12013KT P6SM SCT020 OVC050
     FM172300 08009KT P6SM OVC013
     FM180200 09009KT 5SM -SN OVC007=

USA.gov is the U.S. government's official web portal to all federal, state and local government web resources and services.